Liverpool Express — DDSD2 — position and weather

sailwx.info

Track history (hours):
 
Tides and Currents Weather Stations Pressure Air Temp Water Temp Dewpoint Dewpoint Depression Visibility Wind Speed Wind Dir Waves Ship Positions

Liverpool Express

Last reported at 2017-Mar-26 06:31 UTC. Time now 2017-Mar-26 07:26 UTC.
Position N 43°35' E 010°18'.

Length 281 m; draft 11.7 m.

Type: Ship (hazmat cat A). MMSI: 218025000.

Date/timePositionNaut miles runAvg speedWind from/ knotsBaromVisibWave heightAir tempDewpointWater temp
2017-Mar-26 06:31N 43°35' E 010°18'0 0.0
2017-Mar-26 05:31N 43°35' E 010°18'0 0.0
2017-Mar-26 04:31N 43°35' E 010°18'0 0.0
2017-Mar-26 03:31N 43°35' E 010°18'0 0.0
2017-Mar-26 02:28N 43°35' E 010°18'0 0.0
2017-Mar-26 01:29N 43°35' E 010°18'0 0.0
2017-Mar-26 00:32N 43°35' E 010°18'0 0.0
2017-Mar-25 23:31N 43°35' E 010°18'0 0.0
2017-Mar-25 22:31N 43°35' E 010°18'0 0.0
2017-Mar-25 21:28N 43°35' E 010°18'0 0.0
2017-Mar-25 20:31N 43°35' E 010°18'0 0.0
2017-Mar-25 19:31N 43°35' E 010°18'0 0.0
2017-Mar-25 18:28N 43°35' E 010°18'0 0.0
2017-Mar-25 17:33N 43°35' E 010°18'0 0.0
2017-Mar-25 16:32N 43°35' E 010°18'0 0.0
2017-Mar-25 15:31N 43°35' E 010°18'0 0.0
2017-Mar-25 14:33N 43°35' E 010°18'0 0.0
2017-Mar-25 13:33N 43°35' E 010°18'0 0.0
2017-Mar-25 12:33N 43°35' E 010°18'0 0.0
2017-Mar-25 11:33N 43°35' E 010°18'0 0.0
2017-Mar-25 10:33N 43°35' E 010°18'0 0.0
2017-Mar-25 09:33N 43°35' E 010°18'0 0.0
2017-Mar-25 08:33N 43°35' E 010°18'1 0.8
2017-Mar-25 07:33N 43°34' E 010°18'6 6.3
2017-Mar-25 06:33N 43°29' E 010°12'0 0.4
2017-Mar-25 05:33N 43°29' E 010°12'2 1.5
2017-Mar-25 04:33N 43°27' E 010°12'8 7.8
2017-Mar-25 03:33N 43°20' E 010°09'10 9.8
2017-Mar-25 02:33N 43°10' E 010°05'1010.0
2017-Mar-25 01:33N 43°01' E 010°00'10 9.9
2017-Mar-25 00:33N 42°52' E 009°56'4 6.8
2017-Mar-25 00:00N 42°48' E 009°54'715.8 110 / 81021.510.8 14.513.015.3
2017-Mar-24 23:33N 42°41' E 009°56'9 8.9
2017-Mar-24 22:33N 42°32' E 009°55'8 8.2
2017-Mar-24 21:33N 42°24' E 009°55'11 8.3
2017-Mar-24 20:16N 42°14' E 009°56'104 7.3
2017-Mar-24 06:00N 40°30' E 010°06'6711.1 150 / 121018.8 5.4 15.213.515.2
2017-Mar-24 00:00N 39°24' E 009°54'33 7.4 180 / 151018.0 5.4 15.013.415.6
2017-Mar-23 19:32N 38°59' E 009°26'10 9.7
2017-Mar-23 18:33N 39°04' E 009°15'9 8.9
2017-Mar-23 17:33N 39°09' E 009°06'4 4.1
2017-Mar-23 16:32N 39°13' E 009°04'0 0.0
2017-Mar-23 15:33N 39°13' E 009°04'0 0.0
2017-Mar-23 14:33N 39°13' E 009°04'0 0.0
2017-Mar-23 13:32N 39°13' E 009°04'0 0.0
2017-Mar-23 12:33N 39°13' E 009°04'0 0.0
2017-Mar-23 11:32N 39°13' E 009°04'0 0.0
2017-Mar-23 10:32N 39°13' E 009°04'0 0.0
2017-Mar-23 09:33N 39°13' E 009°04'0 0.0
2017-Mar-23 08:33N 39°13' E 009°04'0 0.0
2017-Mar-23 07:33N 39°13' E 009°04'0 0.0
2017-Mar-23 06:33N 39°13' E 009°04'0 0.0
2017-Mar-23 05:33N 39°13' E 009°04'0 0.0
2017-Mar-23 04:33N 39°13' E 009°04'0 0.0
2017-Mar-23 03:32N 39°13' E 009°04'0 0.0
2017-Mar-23 02:33N 39°13' E 009°04'0 0.0
2017-Mar-23 01:33N 39°13' E 009°04'0 0.0
2017-Mar-23 00:32N 39°13' E 009°04'0 0.0
2017-Mar-22 23:32N 39°13' E 009°04'0 0.0
2017-Mar-22 22:33N 39°13' E 009°04'0 0.0
2017-Mar-22 21:32N 39°13' E 009°04'0 0.0
2017-Mar-22 20:32N 39°13' E 009°04'0 0.0
2017-Mar-22 19:33N 39°13' E 009°04'0 0.0
2017-Mar-22 18:33N 39°13' E 009°04'0 0.0
2017-Mar-22 17:33N 39°13' E 009°04'0 0.0
2017-Mar-22 16:33N 39°13' E 009°04'0 0.0
2017-Mar-22 15:33N 39°13' E 009°04'0 0.0
2017-Mar-22 14:33N 39°13' E 009°04'0 0.0
2017-Mar-22 13:33N 39°13' E 009°04'0 0.0
2017-Mar-22 12:33N 39°13' E 009°04'0 0.1
2017-Mar-22 11:33N 39°13' E 009°04'9 8.6
2017-Mar-22 10:33N 39°05' E 009°08'1817.7
2017-Mar-22 09:33N 38°49' E 008°58'1716.6
2017-Mar-22 08:33N 38°39' E 008°41'15818.5
2017-Mar-22 00:00N 38°48' E 005°18'7118.4 180 / 71015.0 5.4 16.014.415.9
2017-Mar-21 20:07N 38°57' E 003°47'1018.6
2017-Mar-21 19:33N 38°58' E 003°34'1918.6
2017-Mar-21 18:33N 39°00' E 003°10'1918.3
2017-Mar-21 17:32N 39°02' E 002°46'1818.3
2017-Mar-21 16:33N 39°06' E 002°23'1918.9
2017-Mar-21 15:33N 39°09' E 001°59'2019.6
2017-Mar-21 14:33N 39°13' E 001°35'2019.6
2017-Mar-21 13:33N 39°16' E 001°10'1918.8
2017-Mar-21 12:33N 39°18' E 000°45'1918.9
2017-Mar-21 11:33N 39°21' E 000°21'2517.9
2017-Mar-21 10:10N 39°24' W 000°11'711.5
2017-Mar-21 09:34N 39°27' W 000°19'0 0.1
2017-Mar-21 08:28N 39°27' W 000°19'0 0.0
2017-Mar-21 07:31N 39°27' W 000°19'0 0.0
2017-Mar-21 06:32N 39°27' W 000°19'0 0.0
2017-Mar-21 05:32N 39°27' W 000°19'0 0.0
2017-Mar-21 04:33N 39°27' W 000°19'0 0.0
2017-Mar-21 03:33N 39°27' W 000°19'0 0.0
2017-Mar-21 02:33N 39°27' W 000°19'0 0.0
2017-Mar-21 01:33N 39°27' W 000°19'0 0.0
2017-Mar-21 00:33N 39°27' W 000°19'0 0.0
2017-Mar-20 23:31N 39°27' W 000°19'0 0.0
2017-Mar-20 22:31N 39°27' W 000°19'0 0.0
2017-Mar-20 21:31N 39°27' W 000°19'0 0.0
2017-Mar-20 20:33N 39°27' W 000°19'4 1.9
2017-Mar-20 18:32N 39°24' W 000°16'0 0.0
2017-Mar-20 17:32N 39°24' W 000°16'0 0.0
2017-Mar-20 16:32N 39°24' W 000°16'1 0.6
2017-Mar-20 15:33N 39°23' W 000°16'1312.4
2017-Mar-20 14:30N 39°15' W 000°03'1915.0
2017-Mar-20 13:15N 39°00' E 000°12'2612.7
2017-Mar-20 11:12N 38°35' E 000°21'1615.2
2017-Mar-20 10:10N 38°21' E 000°12'1015.2
2017-Mar-20 09:31N 38°12' E 000°06'1515.4
2017-Mar-20 08:33N 38°00' W 000°05'1615.3
2017-Mar-20 07:30N 37°47' W 000°17'1615.7
2017-Mar-20 06:28N 37°34' W 000°29'4 9.0
2017-Mar-20 06:00N 37°30' W 000°30'1329.8 040 / 41014.0 5.4 14.513.315.7
2017-Mar-20 05:34N 37°24' W 000°44'1817.7
2017-Mar-20 04:33N 37°13' W 001°02'2318.1
2017-Mar-20 03:18N 36°57' W 001°23'2118.2
2017-Mar-20 02:08N 36°43' W 001°42'3817.8
2017-Mar-20 00:00N 36°18' W 002°18'1119.9 150 / 71015.3 5.4 16.014.415.7
2017-Mar-19 23:25N 36°18' W 002°32'1618.0
2017-Mar-19 22:33N 36°15' W 002°51'1818.1
2017-Mar-19 21:34N 36°12' W 003°13'1817.6
2017-Mar-19 20:31N 36°10' W 003°36'1818.2
2017-Mar-19 19:34N 36°08' W 003°57'1918.6
2017-Mar-19 18:34N 36°06' W 004°20'1017.8
2017-Mar-19 18:00N 36°00' W 004°30'1125.8 110 / 61015.4 5.4 17.012.316.3
2017-Mar-19 17:33N 36°04' W 004°43'1818.1
2017-Mar-19 16:33N 36°01' W 005°05'1918.7
2017-Mar-19 15:34N 35°58' W 005°28'1717.1
2017-Mar-19 14:33N 35°55' W 005°49'1717.1
2017-Mar-19 13:32N 35°54' W 006°10'12416.4
2017-Mar-19 06:00N 36°12' W 008°42'2022.6 060 / 201016.510.8 17.014.816.7
2017-Mar-19 05:06N 36°16' W 009°07'1317.4
2017-Mar-19 04:23N 36°18' W 009°22'3617.2
2017-Mar-19 02:18N 36°25' W 010°05'1317.0
2017-Mar-19 01:33N 36°27' W 010°21'1817.1
2017-Mar-19 00:31N 36°30' W 010°43'1616.7
2017-Mar-18 23:33N 36°32' W 011°03'1716.9
2017-Mar-18 22:34N 36°35' W 011°23'1716.8
2017-Mar-18 21:34N 36°38' W 011°44'1716.4
2017-Mar-18 20:31N 36°41' W 012°05'1616.9
2017-Mar-18 19:33N 36°43' W 012°25'1616.1
2017-Mar-18 18:33N 36°45' W 012°45'814.3
2017-Mar-18 18:00N 36°42' W 012°54'1024.1 030 / 271019.0 5.4 15.514.516.5
2017-Mar-18 17:33N 36°47' W 013°05'1616.4
2017-Mar-18 16:33N 36°49' W 013°25'1616.3
2017-Mar-18 15:34N 36°52' W 013°46'1616.4
2017-Mar-18 14:33N 36°54' W 014°06'1616.4
2017-Mar-18 13:33N 36°56' W 014°26'1616.2
2017-Mar-18 12:34N 36°58' W 014°46'1916.1
2017-Mar-18 11:21N 37°00' W 015°10'1417.2
2017-Mar-18 10:33N 37°02' W 015°28'7917.2
2017-Mar-18 06:00N 37°06' W 017°06'10617.6 040 / 261021.0 5.4 16.013.816.7
2017-Mar-18 00:00N 37°18' W 019°18'10517.5 050 / 271024.0 15.512.816.1
2017-Mar-17 18:00N 37°24' W 021°30'9818.1 040 / 321024.710.8 14.312.517.4
2017-Mar-17 12:33N 37°29' W 023°34'814.6
2017-Mar-17 12:00N 37°24' W 023°42'1227.3 040 / 271028.010.8 14.011.218.6
2017-Mar-17 11:33N 37°29' W 023°56'1817.6
2017-Mar-17 10:33N 37°30' W 024°18'1717.4
2017-Mar-17 09:33N 37°30' W 024°40'1817.7
2017-Mar-17 08:33N 37°30' W 025°02'1817.8
2017-Mar-17 07:34N 37°30' W 025°24'1818.3
2017-Mar-17 06:33N 37°30' W 025°47'1818.4
2017-Mar-17 05:34N 37°31' W 026°11'1818.0
2017-Mar-17 04:33N 37°30' W 026°33'1817.9
2017-Mar-17 03:34N 37°30' W 026°56'1817.7
2017-Mar-17 02:33N 37°30' W 027°18'4017.7
2017-Mar-17 00:16N 37°29' W 028°09'619.9
2017-Mar-17 00:00N 37°24' W 028°12'1224.7 040 / 311032.510.8 14.511.819.2
2017-Mar-16 23:30N 37°29' W 028°26'1717.8
2017-Mar-16 22:34N 37°28' W 028°47'1817.9
2017-Mar-16 21:33N 37°28' W 029°10'1817.9
2017-Mar-16 20:33N 37°27' W 029°32'1817.6
2017-Mar-16 19:31N 37°27' W 029°55'2315.1
2017-Mar-16 18:00N 37°24' W 030°24'11018.3 050 / 251031.810.8 15.512.120.0
2017-Mar-16 12:00N 37°18' W 032°42'   050 / 211036.510.8 15.513.520.0
Track history (hours):
 
Tides and Currents Weather Stations Pressure Air Temp Water Temp Dewpoint Dewpoint Depression Visibility Wind Speed Wind Dir Waves Ship Positions

Liverpool Express

Last reported at 2017-Mar-26 06:31 UTC. Time now 2017-Mar-26 07:26 UTC.
Position N 43°35' E 010°18'.

Length 281 m; draft 11.7 m.

Type: Ship (hazmat cat A). MMSI: 218025000.

Date/timePositionNaut miles runAvg speedWind from/ knotsBaromVisibWave heightAir tempDewpointWater temp
2017-Mar-26 06:31N 43°35' E 010°18'0 0.0
2017-Mar-26 05:31N 43°35' E 010°18'0 0.0
2017-Mar-26 04:31N 43°35' E 010°18'0 0.0
2017-Mar-26 03:31N 43°35' E 010°18'0 0.0
2017-Mar-26 02:28N 43°35' E 010°18'0 0.0
2017-Mar-26 01:29N 43°35' E 010°18'0 0.0
2017-Mar-26 00:32N 43°35' E 010°18'0 0.0
2017-Mar-25 23:31N 43°35' E 010°18'0 0.0
2017-Mar-25 22:31N 43°35' E 010°18'0 0.0
2017-Mar-25 21:28N 43°35' E 010°18'0 0.0
2017-Mar-25 20:31N 43°35' E 010°18'0 0.0
2017-Mar-25 19:31N 43°35' E 010°18'0 0.0
2017-Mar-25 18:28N 43°35' E 010°18'0 0.0
2017-Mar-25 17:33N 43°35' E 010°18'0 0.0
2017-Mar-25 16:32N 43°35' E 010°18'0 0.0
2017-Mar-25 15:31N 43°35' E 010°18'0 0.0
2017-Mar-25 14:33N 43°35' E 010°18'0 0.0
2017-Mar-25 13:33N 43°35' E 010°18'0 0.0
2017-Mar-25 12:33N 43°35' E 010°18'0 0.0
2017-Mar-25 11:33N 43°35' E 010°18'0 0.0
2017-Mar-25 10:33N 43°35' E 010°18'0 0.0
2017-Mar-25 09:33N 43°35' E 010°18'0 0.0
2017-Mar-25 08:33N 43°35' E 010°18'1 0.8
2017-Mar-25 07:33N 43°34' E 010°18'6 6.3
2017-Mar-25 06:33N 43°29' E 010°12'0 0.4
2017-Mar-25 05:33N 43°29' E 010°12'2 1.5
2017-Mar-25 04:33N 43°27' E 010°12'8 7.8
2017-Mar-25 03:33N 43°20' E 010°09'10 9.8
2017-Mar-25 02:33N 43°10' E 010°05'1010.0
2017-Mar-25 01:33N 43°01' E 010°00'10 9.9
2017-Mar-25 00:33N 42°52' E 009°56'4 6.8
2017-Mar-25 00:00N 42°48' E 009°54'715.8 110 / 81021.510.8 14.513.015.3
2017-Mar-24 23:33N 42°41' E 009°56'9 8.9
2017-Mar-24 22:33N 42°32' E 009°55'8 8.2
2017-Mar-24 21:33N 42°24' E 009°55'11 8.3
2017-Mar-24 20:16N 42°14' E 009°56'104 7.3
2017-Mar-24 06:00N 40°30' E 010°06'6711.1 150 / 121018.8 5.4 15.213.515.2
2017-Mar-24 00:00N 39°24' E 009°54'33 7.4 180 / 151018.0 5.4 15.013.415.6
2017-Mar-23 19:32N 38°59' E 009°26'10 9.7
2017-Mar-23 18:33N 39°04' E 009°15'9 8.9
2017-Mar-23 17:33N 39°09' E 009°06'4 4.1
2017-Mar-23 16:32N 39°13' E 009°04'0 0.0
2017-Mar-23 15:33N 39°13' E 009°04'0 0.0
2017-Mar-23 14:33N 39°13' E 009°04'0 0.0
2017-Mar-23 13:32N 39°13' E 009°04'0 0.0
2017-Mar-23 12:33N 39°13' E 009°04'0 0.0
2017-Mar-23 11:32N 39°13' E 009°04'0 0.0
2017-Mar-23 10:32N 39°13' E 009°04'0 0.0
2017-Mar-23 09:33N 39°13' E 009°04'0 0.0
2017-Mar-23 08:33N 39°13' E 009°04'0 0.0
2017-Mar-23 07:33N 39°13' E 009°04'0 0.0
2017-Mar-23 06:33N 39°13' E 009°04'0 0.0
2017-Mar-23 05:33N 39°13' E 009°04'0 0.0
2017-Mar-23 04:33N 39°13' E 009°04'0 0.0
2017-Mar-23 03:32N 39°13' E 009°04'0 0.0
2017-Mar-23 02:33N 39°13' E 009°04'0 0.0
2017-Mar-23 01:33N 39°13' E 009°04'0 0.0
2017-Mar-23 00:32N 39°13' E 009°04'0 0.0
2017-Mar-22 23:32N 39°13' E 009°04'0 0.0
2017-Mar-22 22:33N 39°13' E 009°04'0 0.0
2017-Mar-22 21:32N 39°13' E 009°04'0 0.0
2017-Mar-22 20:32N 39°13' E 009°04'0 0.0
2017-Mar-22 19:33N 39°13' E 009°04'0 0.0
2017-Mar-22 18:33N 39°13' E 009°04'0 0.0
2017-Mar-22 17:33N 39°13' E 009°04'0 0.0
2017-Mar-22 16:33N 39°13' E 009°04'0 0.0
2017-Mar-22 15:33N 39°13' E 009°04'0 0.0
2017-Mar-22 14:33N 39°13' E 009°04'0 0.0
2017-Mar-22 13:33N 39°13' E 009°04'0 0.0
2017-Mar-22 12:33N 39°13' E 009°04'0 0.1
2017-Mar-22 11:33N 39°13' E 009°04'9 8.6
2017-Mar-22 10:33N 39°05' E 009°08'1817.7
2017-Mar-22 09:33N 38°49' E 008°58'1716.6
2017-Mar-22 08:33N 38°39' E 008°41'15818.5
2017-Mar-22 00:00N 38°48' E 005°18'7118.4 180 / 71015.0 5.4 16.014.415.9
2017-Mar-21 20:07N 38°57' E 003°47'1018.6
2017-Mar-21 19:33N 38°58' E 003°34'1918.6
2017-Mar-21 18:33N 39°00' E 003°10'1918.3
2017-Mar-21 17:32N 39°02' E 002°46'1818.3
2017-Mar-21 16:33N 39°06' E 002°23'1918.9
2017-Mar-21 15:33N 39°09' E 001°59'2019.6
2017-Mar-21 14:33N 39°13' E 001°35'2019.6
2017-Mar-21 13:33N 39°16' E 001°10'1918.8
2017-Mar-21 12:33N 39°18' E 000°45'1918.9
2017-Mar-21 11:33N 39°21' E 000°21'2517.9
2017-Mar-21 10:10N 39°24' W 000°11'711.5
2017-Mar-21 09:34N 39°27' W 000°19'0 0.1
2017-Mar-21 08:28N 39°27' W 000°19'0 0.0
2017-Mar-21 07:31N 39°27' W 000°19'0 0.0
2017-Mar-21 06:32N 39°27' W 000°19'0 0.0
2017-Mar-21 05:32N 39°27' W 000°19'0 0.0
2017-Mar-21 04:33N 39°27' W 000°19'0 0.0
2017-Mar-21 03:33N 39°27' W 000°19'0 0.0
2017-Mar-21 02:33N 39°27' W 000°19'0 0.0
2017-Mar-21 01:33N 39°27' W 000°19'0 0.0
2017-Mar-21 00:33N 39°27' W 000°19'0 0.0
2017-Mar-20 23:31N 39°27' W 000°19'0 0.0
2017-Mar-20 22:31N 39°27' W 000°19'0 0.0
2017-Mar-20 21:31N 39°27' W 000°19'0 0.0
2017-Mar-20 20:33N 39°27' W 000°19'4 1.9
2017-Mar-20 18:32N 39°24' W 000°16'0 0.0
2017-Mar-20 17:32N 39°24' W 000°16'0 0.0
2017-Mar-20 16:32N 39°24' W 000°16'1 0.6
2017-Mar-20 15:33N 39°23' W 000°16'1312.4
2017-Mar-20 14:30N 39°15' W 000°03'1915.0
2017-Mar-20 13:15N 39°00' E 000°12'2612.7
2017-Mar-20 11:12N 38°35' E 000°21'1615.2
2017-Mar-20 10:10N 38°21' E 000°12'1015.2
2017-Mar-20 09:31N 38°12' E 000°06'1515.4
2017-Mar-20 08:33N 38°00' W 000°05'1615.3
2017-Mar-20 07:30N 37°47' W 000°17'1615.7
2017-Mar-20 06:28N 37°34' W 000°29'4 9.0
2017-Mar-20 06:00N 37°30' W 000°30'1329.8 040 / 41014.0 5.4 14.513.315.7
2017-Mar-20 05:34N 37°24' W 000°44'1817.7
2017-Mar-20 04:33N 37°13' W 001°02'2318.1
2017-Mar-20 03:18N 36°57' W 001°23'2118.2
2017-Mar-20 02:08N 36°43' W 001°42'3817.8
2017-Mar-20 00:00N 36°18' W 002°18'1119.9 150 / 71015.3 5.4 16.014.415.7
2017-Mar-19 23:25N 36°18' W 002°32'1618.0
2017-Mar-19 22:33N 36°15' W 002°51'1818.1
2017-Mar-19 21:34N 36°12' W 003°13'1817.6
2017-Mar-19 20:31N 36°10' W 003°36'1818.2
2017-Mar-19 19:34N 36°08' W 003°57'1918.6
2017-Mar-19 18:34N 36°06' W 004°20'1017.8
2017-Mar-19 18:00N 36°00' W 004°30'1125.8 110 / 61015.4 5.4 17.012.316.3
2017-Mar-19 17:33N 36°04' W 004°43'1818.1
2017-Mar-19 16:33N 36°01' W 005°05'1918.7
2017-Mar-19 15:34N 35°58' W 005°28'1717.1
2017-Mar-19 14:33N 35°55' W 005°49'1717.1
2017-Mar-19 13:32N 35°54' W 006°10'12416.4
2017-Mar-19 06:00N 36°12' W 008°42'2022.6 060 / 201016.510.8 17.014.816.7
2017-Mar-19 05:06N 36°16' W 009°07'1317.4
2017-Mar-19 04:23N 36°18' W 009°22'3617.2
2017-Mar-19 02:18N 36°25' W 010°05'1317.0
2017-Mar-19 01:33N 36°27' W 010°21'1817.1
2017-Mar-19 00:31N 36°30' W 010°43'1616.7
2017-Mar-18 23:33N 36°32' W 011°03'1716.9
2017-Mar-18 22:34N 36°35' W 011°23'1716.8
2017-Mar-18 21:34N 36°38' W 011°44'1716.4
2017-Mar-18 20:31N 36°41' W 012°05'1616.9
2017-Mar-18 19:33N 36°43' W 012°25'1616.1
2017-Mar-18 18:33N 36°45' W 012°45'814.3
2017-Mar-18 18:00N 36°42' W 012°54'1024.1 030 / 271019.0 5.4 15.514.516.5
2017-Mar-18 17:33N 36°47' W 013°05'1616.4
2017-Mar-18 16:33N 36°49' W 013°25'1616.3
2017-Mar-18 15:34N 36°52' W 013°46'1616.4
2017-Mar-18 14:33N 36°54' W 014°06'1616.4
2017-Mar-18 13:33N 36°56' W 014°26'1616.2
2017-Mar-18 12:34N 36°58' W 014°46'1916.1
2017-Mar-18 11:21N 37°00' W 015°10'1417.2
2017-Mar-18 10:33N 37°02' W 015°28'7917.2
2017-Mar-18 06:00N 37°06' W 017°06'10617.6 040 / 261021.0 5.4 16.013.816.7
2017-Mar-18 00:00N 37°18' W 019°18'10517.5 050 / 271024.0 15.512.816.1
2017-Mar-17 18:00N 37°24' W 021°30'9818.1 040 / 321024.710.8 14.312.517.4
2017-Mar-17 12:33N 37°29' W 023°34'814.6
2017-Mar-17 12:00N 37°24' W 023°42'1227.3 040 / 271028.010.8 14.011.218.6
2017-Mar-17 11:33N 37°29' W 023°56'1817.6
2017-Mar-17 10:33N 37°30' W 024°18'1717.4
2017-Mar-17 09:33N 37°30' W 024°40'1817.7
2017-Mar-17 08:33N 37°30' W 025°02'1817.8
2017-Mar-17 07:34N 37°30' W 025°24'1818.3
2017-Mar-17 06:33N 37°30' W 025°47'1818.4
2017-Mar-17 05:34N 37°31' W 026°11'1818.0
2017-Mar-17 04:33N 37°30' W 026°33'1817.9
2017-Mar-17 03:34N 37°30' W 026°56'1817.7
2017-Mar-17 02:33N 37°30' W 027°18'4017.7
2017-Mar-17 00:16N 37°29' W 028°09'619.9
2017-Mar-17 00:00N 37°24' W 028°12'1224.7 040 / 311032.510.8 14.511.819.2
2017-Mar-16 23:30N 37°29' W 028°26'1717.8
2017-Mar-16 22:34N 37°28' W 028°47'1817.9
2017-Mar-16 21:33N 37°28' W 029°10'1817.9
2017-Mar-16 20:33N 37°27' W 029°32'1817.6
2017-Mar-16 19:31N 37°27' W 029°55'2315.1
2017-Mar-16 18:00N 37°24' W 030°24'11018.3 050 / 251031.810.8 15.512.120.0
2017-Mar-16 12:00N 37°18' W 032°42'   050 / 211036.510.8 15.513.520.0

Dump ship's entire track history